Mount Horeb, WI

3:45 PM CDT on October 01, 2014 (GMT -0500)
WIDOT Mt. Horeb - USH 18/151 @ Sandrock Rd. | Change Station
CLOSE
Current Station
Personal Weather Station
Location: Mount Horeb, WI
Elevation: 835 ft
Nearby Weather Stations

Elev 835 ft 42.99 °N, 89.75 °W | Updated 44 minutes ago

Partly Cloudy
Partly Cloudy
67 °F
Feels Like 67 °F
N
7
Wind Variable Wind from SSE
Gusts 14.0 mph

Today
High -- | Low -- °F
--% Chance of Precip.
Yesterday
High -- | Low -- °F
Precip. -- in
6:56 AM 6:40 PM
Waxing Crescent, 51% visible
Pressure 30.03 in
Visibility 10.0 miles
Clouds Overcast 1600 ft
Dew Point 48 °F
Humidity 52%
Rainfall -999.00 in
Snow Depth Not available.
UV 0 out of 12
Pollen 3.00 out of 12
PM2.5 Good
Flu Activity Not available.
METAR KC29 302135Z AUTO 07007KT 10SM OVC016 11/06 A3003 RMK AO1 T01050056

More Conditions Fewer Conditions

Pressure 30.03 in
Visibility 10.0 miles
Clouds Overcast 1600 ft
Dew Point 48 °F
Humidity 52%
Rainfall -999.00 in
Snow Depth Not available.
UV 0 out of 12
Pollen 3.00 out of 12
PM2.5 Good
Flu Activity Not available.
METAR KC29 302135Z AUTO 07007KT 10SM OVC016 11/06 A3003 RMK AO1 T01050056

More Conditions Fewer Conditions

10-Day Weather Forecast

Almanac

Astronomy

Oct. 01, 2014 Rise Set
Actual Time 6:56 AM CDT 6:40 PM CDT
Civil Twilight 6:27 AM CDT 7:08 PM CDT
Nautical Twilight 5:55 AM CDT 7:41 PM CDT
Astronomical Twilight 5:21 AM CDT 8:14 PM CDT
Moon 2:03 PM CDT No Moon Set
Length of Visible Light 12h 40m
Length of Day
11h 43m
Tomorrow will be 2m 54s shorter.
Waxing Crescent, 51% of the Moon is Illuminated
Today
Waxing Crescent
Oct 8
Full
Oct 15
Last Quarter
Oct 23
New
Oct 30
First Quarter

Today's Extremes

State Highs State Lows

Community

WunderPhotos

Upload Photos

1,758,043 photos uploaded!

WunderBlogs® & News

By Dr. Jeff Masters
Director of Meteorology, Weather Underground
By Kari Strenfel
Meteorologist, Weather Underground
By Christopher C. Burt
Weather Historian, Weather Underground
October 1, 2014
October 1, 2014
October 1, 2014

Nearby

Air Quality

  Air Quality AQ Index Pollutant
Yesterday Good
OZONE
Yesterday Good
PM2.5
Current Good
PM2.5
Wednesday Good
OZONE
Wednesday Good
PM2.5
Thursday Good
OZONE
Thursday Good
PM2.5
Friday Good
OZONE
Friday Good
PM2.5
Saturday Good
OZONE
Saturday Good
PM2.5
Sunday Good
OZONE
Sunday Good
PM2.5

Snow Depth

Station Depth Elevation
No new snow has been reported.

Earthquake Activity

City Distance Mag. Time & Date
No recent earthquake activity has been reported nearby.
Minimum magnitude displayed is 2.5.

Coastal Water Temperatures

Place Temperature
No Stations Reporting

Nearby Weather Stations